sensor_id;sensor_type;location;lat;lon;timestamp;P1;durP1;ratioP1;P2;durP2;ratioP2
65162;SDS011;51751;55.714;37.436;2023-03-14T00:00:49;3.60;;;1.90;;
65162;SDS011;51751;55.714;37.436;2023-03-14T00:03:15;2.88;;;1.50;;
65162;SDS011;51751;55.714;37.436;2023-03-14T00:05:41;2.53;;;1.27;;
65162;SDS011;51751;55.714;37.436;2023-03-14T00:08:07;1.90;;;1.40;;
65162;SDS011;51751;55.714;37.436;2023-03-14T00:10:33;2.90;;;1.60;;
65162;SDS011;51751;55.714;37.436;2023-03-14T00:13:01;2.90;;;1.55;;
65162;SDS011;51751;55.714;37.436;2023-03-14T00:15:27;2.97;;;1.70;;
65162;SDS011;51751;55.714;37.436;2023-03-14T00:17:53;2.67;;;1.90;;
65162;SDS011;51751;55.714;37.436;2023-03-14T00:20:19;3.53;;;1.65;;
65162;SDS011;51751;55.714;37.436;2023-03-14T00:22:45;2.50;;;1.58;;
65162;SDS011;51751;55.714;37.436;2023-03-14T00:25:11;3.42;;;2.20;;
65162;SDS011;51751;55.714;37.436;2023-03-14T00:27:38;2.20;;;1.27;;
65162;SDS011;51751;55.714;37.436;2023-03-14T00:30:04;2.45;;;1.10;;
65162;SDS011;51751;55.714;37.436;2023-03-14T00:32:51;2.00;;;1.48;;
65162;SDS011;51751;55.714;37.436;2023-03-14T00:35:17;3.20;;;1.63;;
65162;SDS011;51751;55.714;37.436;2023-03-14T00:37:43;3.53;;;1.80;;
65162;SDS011;51751;55.714;37.436;2023-03-14T00:40:09;2.60;;;1.20;;
65162;SDS011;51751;55.714;37.436;2023-03-14T00:42:36;2.90;;;1.58;;
65162;SDS011;51751;55.714;37.436;2023-03-14T00:45:02;2.17;;;1.70;;
65162;SDS011;51751;55.714;37.436;2023-03-14T00:47:29;4.28;;;1.35;;
65162;SDS011;51751;55.714;37.436;2023-03-14T00:49:55;4.00;;;2.10;;
65162;SDS011;51751;55.714;37.436;2023-03-14T00:52:21;3.55;;;2.20;;
65162;SDS011;51751;55.714;37.436;2023-03-14T00:54:46;3.65;;;1.48;;
65162;SDS011;51751;55.714;37.436;2023-03-14T00:57:12;3.13;;;2.05;;
65162;SDS011;51751;55.714;37.436;2023-03-14T00:59:39;6.00;;;2.05;;
65162;SDS011;51751;55.714;37.436;2023-03-14T01:02:05;5.32;;;1.50;;
65162;SDS011;51751;55.714;37.436;2023-03-14T01:04:30;2.10;;;1.70;;
65162;SDS011;51751;55.714;37.436;2023-03-14T01:06:56;3.10;;;2.08;;
65162;SDS011;51751;55.714;37.436;2023-03-14T01:09:22;3.22;;;1.80;;
65162;SDS011;51751;55.714;37.436;2023-03-14T01:11:48;3.53;;;1.85;;
65162;SDS011;51751;55.714;37.436;2023-03-14T01:14:23;3.88;;;1.75;;
65162;SDS011;51751;55.714;37.436;2023-03-14T01:17:08;4.45;;;1.85;;
65162;SDS011;51751;55.714;37.436;2023-03-14T01:19:33;4.10;;;1.90;;
65162;SDS011;51751;55.714;37.436;2023-03-14T01:21:59;4.85;;;2.38;;
65162;SDS011;51751;55.714;37.436;2023-03-14T01:24:25;8.05;;;4.20;;
65162;SDS011;51751;55.714;37.436;2023-03-14T01:26:54;6.93;;;3.50;;
65162;SDS011;51751;55.714;37.436;2023-03-14T01:29:23;6.40;;;3.58;;
65162;SDS011;51751;55.714;37.436;2023-03-14T01:31:49;7.03;;;3.58;;
65162;SDS011;51751;55.714;37.436;2023-03-14T01:34:33;4.18;;;2.70;;
65162;SDS011;51751;55.714;37.436;2023-03-14T01:37:02;7.13;;;2.45;;
65162;SDS011;51751;55.714;37.436;2023-03-14T01:39:29;2.92;;;2.13;;
65162;SDS011;51751;55.714;37.436;2023-03-14T01:41:55;5.88;;;3.30;;
65162;SDS011;51751;55.714;37.436;2023-03-14T01:44:21;5.97;;;2.83;;
65162;SDS011;51751;55.714;37.436;2023-03-14T01:46:47;6.10;;;3.30;;
65162;SDS011;51751;55.714;37.436;2023-03-14T01:52:21;6.45;;;3.83;;
65162;SDS011;51751;55.714;37.436;2023-03-14T01:54:55;4.50;;;2.38;;
65162;SDS011;51751;55.714;37.436;2023-03-14T01:57:37;4.72;;;2.95;;
65162;SDS011;51751;55.714;37.436;2023-03-14T02:02:40;6.90;;;2.80;;
65162;SDS011;51751;55.714;37.436;2023-03-14T02:05:30;5.40;;;2.58;;
65162;SDS011;51751;55.714;37.436;2023-03-14T02:08:17;4.53;;;3.10;;
65162;SDS011;51751;55.714;37.436;2023-03-14T02:10:59;4.38;;;2.60;;
65162;SDS011;51751;55.714;37.436;2023-03-14T02:13:41;4.15;;;2.88;;
65162;SDS011;51751;55.714;37.436;2023-03-14T02:16:29;4.22;;;2.85;;
65162;SDS011;51751;55.714;37.436;2023-03-14T02:19:12;7.32;;;3.00;;
65162;SDS011;51751;55.714;37.436;2023-03-14T02:22:11;3.45;;;2.38;;
65162;SDS011;51751;55.714;37.436;2023-03-14T02:27:34;4.60;;;3.20;;
65162;SDS011;51751;55.714;37.436;2023-03-14T02:30:10;6.32;;;3.83;;
65162;SDS011;51751;55.714;37.436;2023-03-14T02:33:02;11.75;;;5.50;;
65162;SDS011;51751;55.714;37.436;2023-03-14T02:35:30;9.95;;;5.45;;
65162;SDS011;51751;55.714;37.436;2023-03-14T02:41:07;6.97;;;4.28;;
65162;SDS011;51751;55.714;37.436;2023-03-14T02:43:38;8.75;;;5.63;;
65162;SDS011;51751;55.714;37.436;2023-03-14T02:46:10;4.82;;;3.20;;
65162;SDS011;51751;55.714;37.436;2023-03-14T02:48:42;5.93;;;4.20;;
65162;SDS011;51751;55.714;37.436;2023-03-14T02:51:11;7.95;;;4.97;;
65162;SDS011;51751;55.714;37.436;2023-03-14T02:53:38;6.47;;;3.72;;
65162;SDS011;51751;55.714;37.436;2023-03-14T02:56:10;5.38;;;2.88;;
65162;SDS011;51751;55.714;37.436;2023-03-14T02:58:36;4.53;;;2.70;;
65162;SDS011;51751;55.714;37.436;2023-03-14T03:01:32;6.72;;;3.72;;
65162;SDS011;51751;55.714;37.436;2023-03-14T03:04:17;6.40;;;3.25;;
65162;SDS011;51751;55.714;37.436;2023-03-14T03:06:45;3.97;;;2.35;;
65162;SDS011;51751;55.714;37.436;2023-03-14T03:09:32;5.25;;;2.95;;
65162;SDS011;51751;55.714;37.436;2023-03-14T03:11:58;3.50;;;2.28;;
65162;SDS011;51751;55.714;37.436;2023-03-14T03:14:27;5.63;;;3.25;;
65162;SDS011;51751;55.714;37.436;2023-03-14T03:17:11;4.35;;;3.05;;
65162;SDS011;51751;55.714;37.436;2023-03-14T03:19:37;12.52;;;5.93;;
65162;SDS011;51751;55.714;37.436;2023-03-14T03:22:03;10.85;;;6.82;;
65162;SDS011;51751;55.714;37.436;2023-03-14T03:24:29;6.78;;;3.88;;
65162;SDS011;51751;55.714;37.436;2023-03-14T03:26:56;4.28;;;3.28;;
65162;SDS011;51751;55.714;37.436;2023-03-14T03:29:21;6.80;;;3.70;;
65162;SDS011;51751;55.714;37.436;2023-03-14T03:31:52;4.80;;;3.45;;
65162;SDS011;51751;55.714;37.436;2023-03-14T03:34:18;7.30;;;3.90;;
65162;SDS011;51751;55.714;37.436;2023-03-14T03:36:47;4.95;;;2.83;;
65162;SDS011;51751;55.714;37.436;2023-03-14T03:39:14;5.20;;;3.13;;
65162;SDS011;51751;55.714;37.436;2023-03-14T03:44:25;7.20;;;3.30;;
65162;SDS011;51751;55.714;37.436;2023-03-14T03:46:51;5.18;;;2.72;;
65162;SDS011;51751;55.714;37.436;2023-03-14T03:49:17;5.55;;;3.20;;
65162;SDS011;51751;55.714;37.436;2023-03-14T03:51:45;6.88;;;2.90;;
65162;SDS011;51751;55.714;37.436;2023-03-14T03:54:12;6.18;;;3.20;;
65162;SDS011;51751;55.714;37.436;2023-03-14T03:56:38;5.10;;;2.75;;
65162;SDS011;51751;55.714;37.436;2023-03-14T03:59:05;4.40;;;2.88;;
65162;SDS011;51751;55.714;37.436;2023-03-14T04:01:31;4.72;;;2.53;;
65162;SDS011;51751;55.714;37.436;2023-03-14T04:03:58;12.57;;;3.65;;
65162;SDS011;51751;55.714;37.436;2023-03-14T04:06:30;8.32;;;2.97;;
65162;SDS011;51751;55.714;37.436;2023-03-14T04:08:58;3.95;;;2.72;;
65162;SDS011;51751;55.714;37.436;2023-03-14T04:11:36;6.38;;;3.58;;
65162;SDS011;51751;55.714;37.436;2023-03-14T04:14:20;3.42;;;2.60;;
65162;SDS011;51751;55.714;37.436;2023-03-14T04:17:00;5.07;;;3.10;;
65162;SDS011;51751;55.714;37.436;2023-03-14T04:19:29;4.20;;;2.70;;
65162;SDS011;51751;55.714;37.436;2023-03-14T04:21:55;4.70;;;2.67;;
65162;SDS011;51751;55.714;37.436;2023-03-14T04:24:24;4.60;;;2.92;;
65162;SDS011;51751;55.714;37.436;2023-03-14T04:26:50;7.18;;;3.38;;
65162;SDS011;51751;55.714;37.436;2023-03-14T04:29:16;7.78;;;3.25;;
65162;SDS011;51751;55.714;37.436;2023-03-14T04:31:44;6.10;;;3.38;;
65162;SDS011;51751;55.714;37.436;2023-03-14T04:34:12;4.82;;;2.92;;
65162;SDS011;51751;55.714;37.436;2023-03-14T04:36:51;5.65;;;3.30;;
65162;SDS011;51751;55.714;37.436;2023-03-14T04:39:32;7.80;;;3.45;;
65162;SDS011;51751;55.714;37.436;2023-03-14T04:42:06;5.10;;;2.70;;
65162;SDS011;51751;55.714;37.436;2023-03-14T04:44:35;4.03;;;2.47;;
65162;SDS011;51751;55.714;37.436;2023-03-14T04:47:01;6.10;;;2.85;;
65162;SDS011;51751;55.714;37.436;2023-03-14T04:49:27;5.68;;;2.78;;
65162;SDS011;51751;55.714;37.436;2023-03-14T04:51:55;8.93;;;3.17;;
65162;SDS011;51751;55.714;37.436;2023-03-14T04:54:23;3.75;;;2.45;;
65162;SDS011;51751;55.714;37.436;2023-03-14T04:56:54;5.30;;;2.67;;
65162;SDS011;51751;55.714;37.436;2023-03-14T04:59:19;5.25;;;2.83;;
65162;SDS011;51751;55.714;37.436;2023-03-14T05:01:46;4.80;;;3.05;;
65162;SDS011;51751;55.714;37.436;2023-03-14T05:04:44;4.80;;;2.85;;
65162;SDS011;51751;55.714;37.436;2023-03-14T05:07:22;5.72;;;3.05;;
65162;SDS011;51751;55.714;37.436;2023-03-14T05:09:56;4.95;;;2.80;;
65162;SDS011;51751;55.714;37.436;2023-03-14T05:12:42;5.32;;;3.17;;
65162;SDS011;51751;55.714;37.436;2023-03-14T05:15:34;5.85;;;2.70;;
65162;SDS011;51751;55.714;37.436;2023-03-14T05:18:23;5.72;;;3.05;;
65162;SDS011;51751;55.714;37.436;2023-03-14T05:21:15;4.25;;;2.78;;
65162;SDS011;51751;55.714;37.436;2023-03-14T05:24:04;2.58;;;2.30;;
65162;SDS011;51751;55.714;37.436;2023-03-14T05:26:49;4.25;;;2.45;;
65162;SDS011;51751;55.714;37.436;2023-03-14T05:29:36;4.75;;;2.80;;
65162;SDS011;51751;55.714;37.436;2023-03-14T05:32:17;4.63;;;2.95;;
65162;SDS011;51751;55.714;37.436;2023-03-14T05:34:59;6.75;;;3.05;;
65162;SDS011;51751;55.714;37.436;2023-03-14T05:37:51;6.93;;;2.65;;
65162;SDS011;51751;55.714;37.436;2023-03-14T05:40:58;3.85;;;2.45;;
65162;SDS011;51751;55.714;37.436;2023-03-14T05:43:53;6.07;;;2.60;;
65162;SDS011;51751;55.714;37.436;2023-03-14T05:46:45;5.75;;;2.45;;
65162;SDS011;51751;55.714;37.436;2023-03-14T05:49:24;3.85;;;2.35;;
65162;SDS011;51751;55.714;37.436;2023-03-14T05:51:56;5.80;;;2.80;;
65162;SDS011;51751;55.714;37.436;2023-03-14T05:54:41;6.13;;;2.83;;
65162;SDS011;51751;55.714;37.436;2023-03-14T05:57:25;6.70;;;2.47;;
65162;SDS011;51751;55.714;37.436;2023-03-14T06:00:21;5.47;;;2.43;;
65162;SDS011;51751;55.714;37.436;2023-03-14T06:03:10;4.43;;;2.20;;
65162;SDS011;51751;55.714;37.436;2023-03-14T06:05:42;6.47;;;2.70;;
65162;SDS011;51751;55.714;37.436;2023-03-14T06:08:08;4.60;;;2.47;;
65162;SDS011;51751;55.714;37.436;2023-03-14T06:10:35;6.53;;;2.60;;
65162;SDS011;51751;55.714;37.436;2023-03-14T06:13:01;7.18;;;2.80;;
65162;SDS011;51751;55.714;37.436;2023-03-14T06:15:32;4.80;;;2.45;;
65162;SDS011;51751;55.714;37.436;2023-03-14T06:18:17;6.03;;;2.55;;
65162;SDS011;51751;55.714;37.436;2023-03-14T06:20:43;3.53;;;2.22;;
65162;SDS011;51751;55.714;37.436;2023-03-14T06:23:19;4.68;;;2.75;;
65162;SDS011;51751;55.714;37.436;2023-03-14T06:25:46;4.50;;;2.78;;
65162;SDS011;51751;55.714;37.436;2023-03-14T06:28:12;4.07;;;2.55;;
65162;SDS011;51751;55.714;37.436;2023-03-14T06:30:39;3.72;;;2.30;;
65162;SDS011;51751;55.714;37.436;2023-03-14T06:33:07;6.78;;;2.60;;
65162;SDS011;51751;55.714;37.436;2023-03-14T06:35:33;5.45;;;2.15;;
65162;SDS011;51751;55.714;37.436;2023-03-14T06:38:08;7.50;;;2.67;;
65162;SDS011;51751;55.714;37.436;2023-03-14T06:40:34;4.60;;;2.72;;
65162;SDS011;51751;55.714;37.436;2023-03-14T06:43:07;6.40;;;2.85;;
65162;SDS011;51751;55.714;37.436;2023-03-14T06:45:35;4.15;;;2.60;;
65162;SDS011;51751;55.714;37.436;2023-03-14T06:48:02;6.15;;;2.53;;
65162;SDS011;51751;55.714;37.436;2023-03-14T06:50:37;8.80;;;2.80;;
65162;SDS011;51751;55.714;37.436;2023-03-14T06:53:22;5.50;;;2.70;;
65162;SDS011;51751;55.714;37.436;2023-03-14T06:55:53;4.20;;;2.50;;
65162;SDS011;51751;55.714;37.436;2023-03-14T06:58:20;5.28;;;3.03;;
65162;SDS011;51751;55.714;37.436;2023-03-14T07:00:45;4.57;;;2.42;;
65162;SDS011;51751;55.714;37.436;2023-03-14T07:03:20;4.35;;;2.78;;
65162;SDS011;51751;55.714;37.436;2023-03-14T07:05:53;5.00;;;2.30;;
65162;SDS011;51751;55.714;37.436;2023-03-14T07:08:19;5.72;;;2.85;;
65162;SDS011;51751;55.714;37.436;2023-03-14T07:10:45;9.68;;;2.53;;
65162;SDS011;51751;55.714;37.436;2023-03-14T07:13:11;6.25;;;2.83;;
65162;SDS011;51751;55.714;37.436;2023-03-14T07:15:48;7.95;;;3.45;;
65162;SDS011;51751;55.714;37.436;2023-03-14T07:18:17;6.30;;;2.60;;
65162;SDS011;51751;55.714;37.436;2023-03-14T07:20:44;12.48;;;2.83;;
65162;SDS011;51751;55.714;37.436;2023-03-14T07:23:12;3.45;;;2.05;;
65162;SDS011;51751;55.714;37.436;2023-03-14T07:25:44;11.52;;;2.90;;
65162;SDS011;51751;55.714;37.436;2023-03-14T07:28:14;6.15;;;2.50;;
65162;SDS011;51751;55.714;37.436;2023-03-14T07:30:42;6.35;;;2.50;;
65162;SDS011;51751;55.714;37.436;2023-03-14T07:33:14;4.43;;;2.50;;
65162;SDS011;51751;55.714;37.436;2023-03-14T07:35:40;6.70;;;2.47;;
65162;SDS011;51751;55.714;37.436;2023-03-14T07:38:06;4.70;;;2.50;;
65162;SDS011;51751;55.714;37.436;2023-03-14T07:40:37;4.38;;;2.50;;
65162;SDS011;51751;55.714;37.436;2023-03-14T07:43:04;5.95;;;2.72;;
65162;SDS011;51751;55.714;37.436;2023-03-14T07:45:40;7.93;;;3.10;;
65162;SDS011;51751;55.714;37.436;2023-03-14T07:48:27;6.32;;;2.70;;
65162;SDS011;51751;55.714;37.436;2023-03-14T07:50:54;6.68;;;2.92;;
65162;SDS011;51751;55.714;37.436;2023-03-14T07:53:23;6.03;;;2.45;;
65162;SDS011;51751;55.714;37.436;2023-03-14T07:55:50;9.27;;;2.90;;
65162;SDS011;51751;55.714;37.436;2023-03-14T07:58:17;4.50;;;2.38;;
65162;SDS011;51751;55.714;37.436;2023-03-14T08:01:01;6.72;;;2.60;;
65162;SDS011;51751;55.714;37.436;2023-03-14T08:03:30;6.22;;;2.63;;
65162;SDS011;51751;55.714;37.436;2023-03-14T08:05:55;4.30;;;2.50;;
65162;SDS011;51751;55.714;37.436;2023-03-14T08:08:21;6.82;;;2.70;;
65162;SDS011;51751;55.714;37.436;2023-03-14T08:10:49;5.68;;;2.60;;
65162;SDS011;51751;55.714;37.436;2023-03-14T08:13:15;4.30;;;1.92;;
65162;SDS011;51751;55.714;37.436;2023-03-14T08:15:41;5.03;;;2.30;;
65162;SDS011;51751;55.714;37.436;2023-03-14T08:18:07;4.18;;;2.25;;
65162;SDS011;51751;55.714;37.436;2023-03-14T08:20:33;4.70;;;2.72;;
65162;SDS011;51751;55.714;37.436;2023-03-14T08:22:59;4.05;;;2.42;;
65162;SDS011;51751;55.714;37.436;2023-03-14T08:25:27;6.93;;;2.30;;
65162;SDS011;51751;55.714;37.436;2023-03-14T08:27:54;8.18;;;2.78;;
65162;SDS011;51751;55.714;37.436;2023-03-14T08:30:38;7.43;;;2.85;;
65162;SDS011;51751;55.714;37.436;2023-03-14T08:33:04;11.82;;;2.53;;
65162;SDS011;51751;55.714;37.436;2023-03-14T08:35:30;3.45;;;2.00;;
65162;SDS011;51751;55.714;37.436;2023-03-14T08:38:14;5.63;;;2.40;;
65162;SDS011;51751;55.714;37.436;2023-03-14T08:40:40;4.40;;;2.40;;
65162;SDS011;51751;55.714;37.436;2023-03-14T08:43:06;4.15;;;2.30;;
65162;SDS011;51751;55.714;37.436;2023-03-14T08:45:32;5.20;;;2.47;;
65162;SDS011;51751;55.714;37.436;2023-03-14T08:47:58;6.13;;;2.80;;
65162;SDS011;51751;55.714;37.436;2023-03-14T08:50:24;4.75;;;2.70;;
65162;SDS011;51751;55.714;37.436;2023-03-14T08:52:50;2.70;;;1.70;;
65162;SDS011;51751;55.714;37.436;2023-03-14T08:55:16;6.50;;;2.50;;
65162;SDS011;51751;55.714;37.436;2023-03-14T08:57:42;3.33;;;2.22;;
65162;SDS011;51751;55.714;37.436;2023-03-14T09:00:08;7.05;;;2.60;;
65162;SDS011;51751;55.714;37.436;2023-03-14T09:02:40;5.03;;;2.50;;
65162;SDS011;51751;55.714;37.436;2023-03-14T09:05:08;4.80;;;2.40;;
65162;SDS011;51751;55.714;37.436;2023-03-14T09:07:38;5.93;;;2.60;;
65162;SDS011;51751;55.714;37.436;2023-03-14T09:10:05;3.88;;;2.40;;
65162;SDS011;51751;55.714;37.436;2023-03-14T09:12:32;6.72;;;2.58;;
65162;SDS011;51751;55.714;37.436;2023-03-14T09:14:58;6.78;;;2.85;;
65162;SDS011;51751;55.714;37.436;2023-03-14T09:17:24;5.78;;;2.00;;
65162;SDS011;51751;55.714;37.436;2023-03-14T09:19:49;12.63;;;2.75;;
65162;SDS011;51751;55.714;37.436;2023-03-14T09:22:15;5.13;;;2.60;;
65162;SDS011;51751;55.714;37.436;2023-03-14T09:24:44;8.13;;;2.58;;
65162;SDS011;51751;55.714;37.436;2023-03-14T09:27:09;8.32;;;2.78;;
65162;SDS011;51751;55.714;37.436;2023-03-14T09:29:35;5.72;;;2.83;;
65162;SDS011;51751;55.714;37.436;2023-03-14T09:32:01;4.55;;;2.45;;
65162;SDS011;51751;55.714;37.436;2023-03-14T09:34:27;4.03;;;2.15;;
65162;SDS011;51751;55.714;37.436;2023-03-14T09:36:53;4.65;;;2.40;;
65162;SDS011;51751;55.714;37.436;2023-03-14T09:39:22;5.05;;;2.63;;
65162;SDS011;51751;55.714;37.436;2023-03-14T09:41:49;8.60;;;2.95;;
65162;SDS011;51751;55.714;37.436;2023-03-14T09:44:24;3.10;;;2.10;;
65162;SDS011;51751;55.714;37.436;2023-03-14T09:47:01;6.15;;;2.60;;
65162;SDS011;51751;55.714;37.436;2023-03-14T09:49:31;5.07;;;2.60;;
65162;SDS011;51751;55.714;37.436;2023-03-14T09:52:16;4.35;;;2.58;;
65162;SDS011;51751;55.714;37.436;2023-03-14T09:54:52;3.40;;;2.45;;
65162;SDS011;51751;55.714;37.436;2023-03-14T09:57:24;4.50;;;2.83;;
65162;SDS011;51751;55.714;37.436;2023-03-14T09:59:52;5.22;;;2.10;;
65162;SDS011;51751;55.714;37.436;2023-03-14T10:02:21;10.32;;;2.33;;
65162;SDS011;51751;55.714;37.436;2023-03-14T10:04:51;7.10;;;3.05;;
65162;SDS011;51751;55.714;37.436;2023-03-14T10:07:21;7.65;;;3.13;;
65162;SDS011;51751;55.714;37.436;2023-03-14T10:09:51;6.40;;;2.92;;
65162;SDS011;51751;55.714;37.436;2023-03-14T10:12:18;4.35;;;2.60;;
65162;SDS011;51751;55.714;37.436;2023-03-14T10:14:48;3.40;;;2.15;;
65162;SDS011;51751;55.714;37.436;2023-03-14T10:17:16;7.95;;;2.80;;
65162;SDS011;51751;55.714;37.436;2023-03-14T10:19:54;9.00;;;2.42;;
65162;SDS011;51751;55.714;37.436;2023-03-14T10:22:25;5.35;;;2.60;;
65162;SDS011;51751;55.714;37.436;2023-03-14T10:25:00;6.57;;;2.47;;
65162;SDS011;51751;55.714;37.436;2023-03-14T10:27:32;5.68;;;2.70;;
65162;SDS011;51751;55.714;37.436;2023-03-14T10:30:01;9.73;;;3.63;;
65162;SDS011;51751;55.714;37.436;2023-03-14T10:32:34;5.22;;;2.95;;
65162;SDS011;51751;55.714;37.436;2023-03-14T10:35:22;5.40;;;3.13;;
65162;SDS011;51751;55.714;37.436;2023-03-14T10:37:52;7.63;;;2.60;;
65162;SDS011;51751;55.714;37.436;2023-03-14T10:40:24;5.63;;;3.00;;
65162;SDS011;51751;55.714;37.436;2023-03-14T10:42:53;5.80;;;2.92;;
65162;SDS011;51751;55.714;37.436;2023-03-14T10:48:23;4.30;;;2.08;;
65162;SDS011;51751;55.714;37.436;2023-03-14T10:56:26;6.32;;;2.63;;
65162;SDS011;51751;55.714;37.436;2023-03-14T10:58:53;5.25;;;2.38;;
65162;SDS011;51751;55.714;37.436;2023-03-14T11:09:05;8.10;;;2.30;;
65162;SDS011;51751;55.714;37.436;2023-03-14T11:11:36;4.07;;;2.05;;
65162;SDS011;51751;55.714;37.436;2023-03-14T11:14:11;2.85;;;2.25;;
65162;SDS011;51751;55.714;37.436;2023-03-14T11:36:31;5.22;;;2.95;;
65162;SDS011;51751;55.714;37.436;2023-03-14T11:41:01;7.03;;;3.22;;
65162;SDS011;51751;55.714;37.436;2023-03-14T11:43:31;4.72;;;2.42;;
65162;SDS011;51751;55.714;37.436;2023-03-14T11:48:37;4.57;;;2.60;;
65162;SDS011;51751;55.714;37.436;2023-03-14T11:51:14;6.05;;;2.53;;
65162;SDS011;51751;55.714;37.436;2023-03-14T11:56:22;5.50;;;2.58;;
65162;SDS011;51751;55.714;37.436;2023-03-14T12:08:11;4.65;;;2.30;;
65162;SDS011;51751;55.714;37.436;2023-03-14T12:10:49;5.55;;;2.67;;
65162;SDS011;51751;55.714;37.436;2023-03-14T12:13:34;6.13;;;2.72;;
65162;SDS011;51751;55.714;37.436;2023-03-14T12:18:47;3.97;;;2.10;;
65162;SDS011;51751;55.714;37.436;2023-03-14T12:21:14;12.15;;;3.17;;
65162;SDS011;51751;55.714;37.436;2023-03-14T12:36:51;5.05;;;2.83;;
65162;SDS011;51751;55.714;37.436;2023-03-14T12:45:21;5.60;;;2.85;;
65162;SDS011;51751;55.714;37.436;2023-03-14T12:48:08;4.93;;;2.80;;
65162;SDS011;51751;55.714;37.436;2023-03-14T12:50:55;6.32;;;2.92;;
65162;SDS011;51751;55.714;37.436;2023-03-14T12:59:21;4.78;;;2.78;;
65162;SDS011;51751;55.714;37.436;2023-03-14T13:01:36;5.57;;;2.97;;
65162;SDS011;51751;55.714;37.436;2023-03-14T13:04:09;5.20;;;2.97;;
65162;SDS011;51751;55.714;37.436;2023-03-14T13:06:55;4.05;;;2.70;;
65162;SDS011;51751;55.714;37.436;2023-03-14T13:11:53;8.82;;;2.65;;
65162;SDS011;51751;55.714;37.436;2023-03-14T13:14:19;3.83;;;2.63;;
65162;SDS011;51751;55.714;37.436;2023-03-14T13:16:48;4.82;;;2.95;;
65162;SDS011;51751;55.714;37.436;2023-03-14T13:19:20;7.85;;;2.78;;
65162;SDS011;51751;55.714;37.436;2023-03-14T13:21:49;6.18;;;2.83;;
65162;SDS011;51751;55.714;37.436;2023-03-14T13:26:53;4.18;;;2.45;;
65162;SDS011;51751;55.714;37.436;2023-03-14T13:31:53;5.00;;;2.60;;
65162;SDS011;51751;55.714;37.436;2023-03-14T13:34:25;3.45;;;2.20;;
65162;SDS011;51751;55.714;37.436;2023-03-14T13:36:52;4.97;;;2.80;;
65162;SDS011;51751;55.714;37.436;2023-03-14T13:39:20;8.88;;;2.85;;
65162;SDS011;51751;55.714;37.436;2023-03-14T13:42:00;5.68;;;2.40;;
65162;SDS011;51751;55.714;37.436;2023-03-14T13:44:36;2.78;;;2.20;;
65162;SDS011;51751;55.714;37.436;2023-03-14T13:47:05;4.00;;;2.63;;
65162;SDS011;51751;55.714;37.436;2023-03-14T13:49:35;3.38;;;2.25;;
65162;SDS011;51751;55.714;37.436;2023-03-14T13:52:03;6.82;;;2.80;;
65162;SDS011;51751;55.714;37.436;2023-03-14T13:54:52;6.75;;;2.53;;
65162;SDS011;51751;55.714;37.436;2023-03-14T13:57:21;5.40;;;2.72;;
65162;SDS011;51751;55.714;37.436;2023-03-14T14:00:06;10.40;;;2.47;;
65162;SDS011;51751;55.714;37.436;2023-03-14T14:02:36;3.70;;;2.47;;
65162;SDS011;51751;55.714;37.436;2023-03-14T14:05:03;4.80;;;2.30;;
65162;SDS011;51751;55.714;37.436;2023-03-14T14:07:29;4.95;;;2.70;;
65162;SDS011;51751;55.714;37.436;2023-03-14T14:09:55;5.63;;;2.70;;
65162;SDS011;51751;55.714;37.436;2023-03-14T14:12:42;4.32;;;2.33;;
65162;SDS011;51751;55.714;37.436;2023-03-14T14:17:42;4.20;;;2.40;;
65162;SDS011;51751;55.714;37.436;2023-03-14T14:20:14;5.18;;;2.40;;
65162;SDS011;51751;55.714;37.436;2023-03-14T14:22:42;4.60;;;2.60;;
65162;SDS011;51751;55.714;37.436;2023-03-14T14:25:12;3.72;;;2.50;;
65162;SDS011;51751;55.714;37.436;2023-03-14T14:27:43;5.03;;;2.80;;
65162;SDS011;51751;55.714;37.436;2023-03-14T14:32:48;5.30;;;2.50;;
65162;SDS011;51751;55.714;37.436;2023-03-14T14:35:34;5.40;;;2.95;;
65162;SDS011;51751;55.714;37.436;2023-03-14T14:38:00;3.60;;;2.47;;
65162;SDS011;51751;55.714;37.436;2023-03-14T14:40:34;6.50;;;2.70;;
65162;SDS011;51751;55.714;37.436;2023-03-14T14:43:03;3.17;;;2.05;;
65162;SDS011;51751;55.714;37.436;2023-03-14T14:45:30;4.97;;;2.50;;
65162;SDS011;51751;55.714;37.436;2023-03-14T14:50:29;6.60;;;2.75;;
65162;SDS011;51751;55.714;37.436;2023-03-14T14:53:01;5.25;;;2.75;;
65162;SDS011;51751;55.714;37.436;2023-03-14T14:55:32;4.95;;;2.70;;
65162;SDS011;51751;55.714;37.436;2023-03-14T14:58:11;5.20;;;2.78;;
65162;SDS011;51751;55.714;37.436;2023-03-14T15:00:50;10.15;;;2.50;;
65162;SDS011;51751;55.714;37.436;2023-03-14T15:03:25;5.50;;;2.70;;
65162;SDS011;51751;55.714;37.436;2023-03-14T15:05:52;4.65;;;3.05;;
65162;SDS011;51751;55.714;37.436;2023-03-14T15:08:20;6.72;;;2.50;;
65162;SDS011;51751;55.714;37.436;2023-03-14T15:10:46;4.40;;;2.80;;
65162;SDS011;51751;55.714;37.436;2023-03-14T15:13:12;5.95;;;2.72;;
65162;SDS011;51751;55.714;37.436;2023-03-14T15:15:38;6.57;;;2.35;;
65162;SDS011;51751;55.714;37.436;2023-03-14T15:18:14;4.13;;;2.42;;
65162;SDS011;51751;55.714;37.436;2023-03-14T15:20:43;4.57;;;2.40;;
65162;SDS011;51751;55.714;37.436;2023-03-14T15:23:13;5.07;;;2.75;;
65162;SDS011;51751;55.714;37.436;2023-03-14T15:26:02;5.60;;;2.30;;
65162;SDS011;51751;55.714;37.436;2023-03-14T15:28:28;4.85;;;2.30;;
65162;SDS011;51751;55.714;37.436;2023-03-14T15:30:56;6.70;;;2.45;;
65162;SDS011;51751;55.714;37.436;2023-03-14T15:33:23;7.20;;;2.65;;
65162;SDS011;51751;55.714;37.436;2023-03-14T15:35:50;5.47;;;2.78;;
65162;SDS011;51751;55.714;37.436;2023-03-14T15:38:18;5.00;;;2.90;;
65162;SDS011;51751;55.714;37.436;2023-03-14T15:41:00;4.30;;;2.42;;
65162;SDS011;51751;55.714;37.436;2023-03-14T15:43:26;4.25;;;2.88;;
65162;SDS011;51751;55.714;37.436;2023-03-14T15:45:52;3.70;;;2.60;;
65162;SDS011;51751;55.714;37.436;2023-03-14T15:48:21;5.35;;;2.70;;
65162;SDS011;51751;55.714;37.436;2023-03-14T15:50:47;3.28;;;2.10;;
65162;SDS011;51751;55.714;37.436;2023-03-14T15:53:13;3.50;;;2.17;;
65162;SDS011;51751;55.714;37.436;2023-03-14T15:55:39;6.05;;;2.40;;
65162;SDS011;51751;55.714;37.436;2023-03-14T15:58:05;5.85;;;2.42;;
65162;SDS011;51751;55.714;37.436;2023-03-14T16:00:31;4.75;;;2.60;;
65162;SDS011;51751;55.714;37.436;2023-03-14T16:02:57;4.65;;;2.50;;
65162;SDS011;51751;55.714;37.436;2023-03-14T16:05:23;3.88;;;1.98;;
65162;SDS011;51751;55.714;37.436;2023-03-14T16:07:49;7.38;;;3.25;;
65162;SDS011;51751;55.714;37.436;2023-03-14T16:10:15;4.05;;;2.30;;
65162;SDS011;51751;55.714;37.436;2023-03-14T16:13:00;4.38;;;2.38;;
65162;SDS011;51751;55.714;37.436;2023-03-14T16:15:26;7.05;;;2.80;;
65162;SDS011;51751;55.714;37.436;2023-03-14T16:17:53;3.97;;;2.35;;
65162;SDS011;51751;55.714;37.436;2023-03-14T16:20:19;3.65;;;2.40;;
65162;SDS011;51751;55.714;37.436;2023-03-14T16:22:45;4.10;;;2.50;;
65162;SDS011;51751;55.714;37.436;2023-03-14T16:25:11;6.00;;;2.38;;
65162;SDS011;51751;55.714;37.436;2023-03-14T16:27:38;4.55;;;2.50;;
65162;SDS011;51751;55.714;37.436;2023-03-14T16:30:04;3.40;;;2.22;;
65162;SDS011;51751;55.714;37.436;2023-03-14T16:32:31;4.80;;;2.80;;
65162;SDS011;51751;55.714;37.436;2023-03-14T16:34:57;6.03;;;2.67;;
65162;SDS011;51751;55.714;37.436;2023-03-14T16:37:23;6.72;;;2.60;;
65162;SDS011;51751;55.714;37.436;2023-03-14T16:39:49;6.05;;;2.70;;
65162;SDS011;51751;55.714;37.436;2023-03-14T16:42:18;6.50;;;3.00;;
65162;SDS011;51751;55.714;37.436;2023-03-14T16:44:44;7.80;;;2.75;;
65162;SDS011;51751;55.714;37.436;2023-03-14T16:49:59;5.28;;;2.78;;